Time;durP1;ratioP1;P1;durP2;ratioP2;P2;SDS_P1;SDS_P2;PMS_P1;PMS_P2;Temp;Humidity;BMP_temperature;BMP_pressure;BME280_temperature;BME280_humidity;BME280_pressure;Samples;Min_cycle;Max_cycle;Signal;HPM_P1;HPM_P2
2022/05/01 00:00:38;;;;;;;4.40;4.00;;;;;;;;;;4952386;29;20226;-62
2022/05/01 00:03:06;;;;;;;4.67;4.07;;;;;;;;;;4951875;29;20736;-62
2022/05/01 00:05:33;;;;;;;4.70;4.30;;;;;;;;;;4952518;29;20605;-61
2022/05/01 00:08:04;;;;;;;4.00;3.73;;;;;;;;;;4952170;28;20298;-62
2022/05/01 00:10:31;;;;;;;5.07;4.10;;;;;;;;;;4947495;29;20579;-61
2022/05/01 00:12:59;;;;;;;4.10;3.80;;;;;;;;;;4966598;28;20214;-61
2022/05/01 00:15:27;;;;;;;4.33;3.93;;;;;;;;;;4970021;28;20214;-62
2022/05/01 00:17:54;;;;;;;4.13;3.83;;;;;;;;;;4952043;29;20218;-61
2022/05/01 00:20:22;;;;;;;5.20;4.00;;;;;;;;;;4952332;28;20609;-62
2022/05/01 00:22:49;;;;;;;5.53;3.43;;;;;;;;;;4971425;28;20238;-62
2022/05/01 00:25:16;;;;;;;3.50;3.20;;;;;;;;;;4964845;28;20215;-61
2022/05/01 00:27:43;;;;;;;3.97;3.60;;;;;;;;;;4965465;28;20211;-62
2022/05/01 00:30:11;;;;;;;4.33;3.53;;;;;;;;;;4951696;29;20700;-62
2022/05/01 00:38:08;;;;;;;3.90;3.60;;;;;;;;;;4932729;29;20211;-62
2022/05/01 00:40:35;;;;;;;4.13;3.60;;;;;;;;;;4943690;28;20261;-62
2022/05/01 00:45:45;;;;;;;3.73;3.43;;;;;;;;;;4945949;28;20677;-62
2022/05/01 00:48:12;;;;;;;4.30;3.90;;;;;;;;;;4951612;29;20214;-61
2022/05/01 00:50:39;;;;;;;3.80;3.50;;;;;;;;;;4960194;28;20716;-62
2022/05/01 00:53:07;;;;;;;5.23;3.67;;;;;;;;;;4970947;28;20214;-62
2022/05/01 00:55:34;;;;;;;4.00;3.30;;;;;;;;;;4965066;28;20218;-62
2022/05/01 00:58:02;;;;;;;4.07;3.77;;;;;;;;;;4953324;28;20214;-62
2022/05/01 01:00:29;;;;;;;3.90;3.50;;;;;;;;;;4957463;28;20289;-62
2022/05/01 01:02:57;;;;;;;3.93;3.63;;;;;;;;;;4970536;28;20742;-62
2022/05/01 01:05:24;;;;;;;3.87;3.60;;;;;;;;;;4955689;28;20231;-62
2022/05/01 01:07:52;;;;;;;4.13;3.83;;;;;;;;;;4951226;29;20215;-63
2022/05/01 01:10:19;;;;;;;6.77;4.40;;;;;;;;;;4950347;29;20264;-62
2022/05/01 01:12:56;;;;;;;4.10;3.70;;;;;;;;;;4951392;28;20735;-62
2022/05/01 01:15:23;;;;;;;11.97;4.43;;;;;;;;;;4950697;28;20435;-61
2022/05/01 01:17:52;;;;;;;4.13;3.73;;;;;;;;;;4951101;28;20215;-62
2022/05/01 01:20:21;;;;;;;4.73;4.00;;;;;;;;;;4950732;28;20210;-62
2022/05/01 01:22:51;;;;;;;5.80;3.97;;;;;;;;;;4950924;29;20278;-62
2022/05/01 01:25:20;;;;;;;4.73;4.33;;;;;;;;;;4950358;29;20270;-62
2022/05/01 01:27:47;;;;;;;5.33;4.13;;;;;;;;;;4950995;29;20318;-62
2022/05/01 01:33:00;;;;;;;4.30;4.00;;;;;;;;;;4951060;29;20222;-61
2022/05/01 01:35:29;;;;;;;4.00;3.50;;;;;;;;;;4950151;29;20203;-62
2022/05/01 01:37:57;;;;;;;3.90;3.60;;;;;;;;;;4950642;29;20238;-62
2022/05/01 01:40:25;;;;;;;5.23;4.43;;;;;;;;;;4950139;29;20312;-62
2022/05/01 01:42:54;;;;;;;5.30;3.77;;;;;;;;;;4950644;29;20239;-62
2022/05/01 01:45:21;;;;;;;3.93;3.57;;;;;;;;;;4950363;29;20242;-62
2022/05/01 01:47:49;;;;;;;4.20;3.90;;;;;;;;;;4950756;29;20211;-62
2022/05/01 01:50:17;;;;;;;4.93;3.37;;;;;;;;;;4950542;29;20306;-62
2022/05/01 01:52:46;;;;;;;5.30;3.63;;;;;;;;;;4950646;29;20305;-62
2022/05/01 01:55:15;;;;;;;3.97;3.67;;;;;;;;;;4950001;29;20211;-62
2022/05/01 01:57:42;;;;;;;4.43;3.37;;;;;;;;;;4950192;29;20234;-59
2022/05/01 02:00:09;;;;;;;3.87;3.57;;;;;;;;;;4949801;29;20846;-59
2022/05/01 02:02:36;;;;;;;4.50;3.73;;;;;;;;;;4949705;28;20289;-60
2022/05/01 02:05:03;;;;;;;5.63;3.60;;;;;;;;;;4949830;29;20272;-59
2022/05/01 02:07:31;;;;;;;4.13;3.83;;;;;;;;;;4950408;29;20299;-59
2022/05/01 02:09:58;;;;;;;3.87;3.57;;;;;;;;;;4949665;29;20227;-60
2022/05/01 02:12:26;;;;;;;4.33;3.93;;;;;;;;;;4950083;29;20214;-60
2022/05/01 02:14:54;;;;;;;3.37;3.17;;;;;;;;;;4948123;29;20217;-61
2022/05/01 02:17:21;;;;;;;4.03;3.73;;;;;;;;;;4949993;29;20226;-61
2022/05/01 02:19:48;;;;;;;3.57;3.33;;;;;;;;;;4949701;29;20234;-60
2022/05/01 02:22:15;;;;;;;3.77;3.47;;;;;;;;;;4950143;29;20282;-60
2022/05/01 02:24:42;;;;;;;4.40;3.20;;;;;;;;;;4949732;29;20306;-59
2022/05/01 02:27:10;;;;;;;3.73;3.40;;;;;;;;;;4949906;28;20211;-60
2022/05/01 02:29:38;;;;;;;3.60;3.37;;;;;;;;;;4949615;29;20214;-60
2022/05/01 02:32:05;;;;;;;3.07;2.97;;;;;;;;;;4949971;28;20214;-60
2022/05/01 02:34:32;;;;;;;3.93;3.33;;;;;;;;;;4948341;29;20207;-60
2022/05/01 02:36:59;;;;;;;3.63;3.33;;;;;;;;;;4949889;29;20650;-60
2022/05/01 02:39:26;;;;;;;3.53;3.33;;;;;;;;;;4949489;29;20246;-62
2022/05/01 02:41:53;;;;;;;3.77;3.57;;;;;;;;;;4949262;29;20229;-60
2022/05/01 02:44:20;;;;;;;3.07;2.87;;;;;;;;;;4949604;29;20278;-60
2022/05/01 02:46:51;;;;;;;3.77;3.47;;;;;;;;;;4949884;29;20207;-60
2022/05/01 02:49:20;;;;;;;3.37;3.07;;;;;;;;;;4949970;29;20202;-60
2022/05/01 02:51:47;;;;;;;2.93;2.83;;;;;;;;;;4949774;29;20214;-60
2022/05/01 02:54:14;;;;;;;3.80;3.50;;;;;;;;;;4949821;28;20207;-60
2022/05/01 02:56:41;;;;;;;3.30;3.10;;;;;;;;;;4949270;29;20686;-60
2022/05/01 02:59:09;;;;;;;3.57;3.37;;;;;;;;;;4949433;28;20215;-60
2022/05/01 03:01:36;;;;;;;3.27;3.07;;;;;;;;;;4949526;29;20211;-60
2022/05/01 03:04:05;;;;;;;4.37;4.03;;;;;;;;;;4949561;28;20333;-60
2022/05/01 03:06:33;;;;;;;3.70;3.40;;;;;;;;;;4949601;28;20278;-60
2022/05/01 03:09:00;;;;;;;3.47;3.27;;;;;;;;;;4949331;29;20243;-60
2022/05/01 03:11:27;;;;;;;3.57;3.27;;;;;;;;;;4949767;28;20211;-60
2022/05/01 03:13:55;;;;;;;3.33;3.13;;;;;;;;;;4950725;28;20260;-60
2022/05/01 03:16:22;;;;;;;3.30;3.10;;;;;;;;;;4953079;29;20214;-59
2022/05/01 03:24:20;;;;;;;4.60;3.63;;;;;;;;;;4949550;29;20221;-60
2022/05/01 03:26:48;;;;;;;4.03;3.73;;;;;;;;;;4953346;29;20215;-60
2022/05/01 03:29:15;;;;;;;3.60;3.50;;;;;;;;;;4952840;29;20230;-59
2022/05/01 03:31:42;;;;;;;3.77;3.57;;;;;;;;;;4952984;28;20215;-60
2022/05/01 03:34:09;;;;;;;4.40;4.00;;;;;;;;;;4952639;29;20935;-60
2022/05/01 03:36:39;;;;;;;4.03;3.70;;;;;;;;;;4952837;29;20266;-60
2022/05/01 03:39:06;;;;;;;4.00;3.70;;;;;;;;;;4952795;29;20222;-60
2022/05/01 03:41:33;;;;;;;3.33;3.00;;;;;;;;;;4952539;29;20207;-60
2022/05/01 03:44:00;;;;;;;4.63;3.27;;;;;;;;;;4952941;29;20522;-60
2022/05/01 03:46:27;;;;;;;4.93;4.07;;;;;;;;;;4952858;28;20210;-60
2022/05/01 03:48:54;;;;;;;4.13;3.80;;;;;;;;;;4952710;29;20227;-60
2022/05/01 03:51:21;;;;;;;3.80;3.60;;;;;;;;;;4952858;28;20214;-60
2022/05/01 03:53:50;;;;;;;6.80;3.47;;;;;;;;;;4952732;29;20258;-60
2022/05/01 03:56:17;;;;;;;3.53;3.30;;;;;;;;;;4952770;29;20203;-60
2022/05/01 03:58:44;;;;;;;3.43;3.23;;;;;;;;;;4950634;29;20211;-59
2022/05/01 04:01:11;;;;;;;3.73;3.40;;;;;;;;;;4950540;29;20219;-60
2022/05/01 04:03:38;;;;;;;3.63;3.43;;;;;;;;;;4952514;28;20230;-60
2022/05/01 04:06:06;;;;;;;4.47;3.77;;;;;;;;;;4952304;28;20726;-60
2022/05/01 04:08:33;;;;;;;3.60;3.40;;;;;;;;;;4952412;29;20240;-60
2022/05/01 04:11:02;;;;;;;6.03;3.57;;;;;;;;;;4952332;29;20211;-60
2022/05/01 04:13:30;;;;;;;3.97;3.67;;;;;;;;;;4952282;29;20210;-60
2022/05/01 04:15:57;;;;;;;4.20;3.80;;;;;;;;;;4952553;29;20880;-60
2022/05/01 04:18:25;;;;;;;3.63;3.40;;;;;;;;;;4952054;29;20262;-60
2022/05/01 04:20:52;;;;;;;4.07;3.57;;;;;;;;;;4952287;29;20298;-60
2022/05/01 04:23:20;;;;;;;3.63;3.43;;;;;;;;;;4952063;29;20314;-60
2022/05/01 04:25:47;;;;;;;3.63;3.33;;;;;;;;;;4951902;28;20203;-60
2022/05/01 04:28:16;;;;;;;4.53;3.63;;;;;;;;;;4952057;28;20310;-60
2022/05/01 04:30:43;;;;;;;3.87;3.67;;;;;;;;;;4952044;29;20289;-60
2022/05/01 04:33:11;;;;;;;3.90;3.60;;;;;;;;;;4951684;28;20203;-60
2022/05/01 04:35:38;;;;;;;3.83;3.60;;;;;;;;;;4952263;28;20289;-63
2022/05/01 04:38:07;;;;;;;4.23;3.80;;;;;;;;;;4951702;28;20275;-60
2022/05/01 04:40:35;;;;;;;5.67;3.70;;;;;;;;;;4951732;28;20203;-60
2022/05/01 04:43:03;;;;;;;4.60;3.90;;;;;;;;;;4951567;28;20322;-61
2022/05/01 04:45:31;;;;;;;6.30;3.80;;;;;;;;;;4951925;29;20215;-60
2022/05/01 04:47:58;;;;;;;4.20;3.67;;;;;;;;;;4952154;29;20305;-60
2022/05/01 04:50:26;;;;;;;4.03;3.70;;;;;;;;;;4951624;29;20207;-60
2022/05/01 04:52:53;;;;;;;3.67;3.43;;;;;;;;;;4951715;29;20266;-61
2022/05/01 04:55:20;;;;;;;3.50;3.30;;;;;;;;;;4951827;29;20219;-61
2022/05/01 04:57:49;;;;;;;3.33;3.13;;;;;;;;;;4951551;29;20634;-61
2022/05/01 05:00:18;;;;;;;5.03;3.40;;;;;;;;;;4951253;29;20218;-61
2022/05/01 05:02:48;;;;;;;5.10;3.50;;;;;;;;;;4951399;29;20767;-60
2022/05/01 05:05:15;;;;;;;3.73;3.43;;;;;;;;;;4950882;29;20235;-60
2022/05/01 05:07:42;;;;;;;4.90;3.47;;;;;;;;;;4948566;29;20218;-60
2022/05/01 05:10:09;;;;;;;4.40;3.87;;;;;;;;;;4950949;29;20243;-60
2022/05/01 05:12:36;;;;;;;8.17;3.77;;;;;;;;;;4951059;29;20245;-60
2022/05/01 05:15:05;;;;;;;3.87;3.43;;;;;;;;;;4951315;29;20765;-60
2022/05/01 05:17:33;;;;;;;3.57;3.37;;;;;;;;;;4951642;28;20230;-59
2022/05/01 05:20:01;;;;;;;3.30;3.10;;;;;;;;;;4951427;29;20235;-60
2022/05/01 05:22:28;;;;;;;3.60;3.37;;;;;;;;;;4951241;29;20218;-60
2022/05/01 05:24:55;;;;;;;4.30;3.90;;;;;;;;;;4950975;29;20211;-60
2022/05/01 05:27:25;;;;;;;4.23;3.83;;;;;;;;;;4951140;29;20207;-60
2022/05/01 05:29:52;;;;;;;3.87;3.67;;;;;;;;;;4950876;29;20297;-60
2022/05/01 05:32:19;;;;;;;4.57;4.13;;;;;;;;;;4951282;29;20230;-60
2022/05/01 05:34:46;;;;;;;4.30;3.27;;;;;;;;;;4950896;29;20662;-60
2022/05/01 05:37:15;;;;;;;3.57;3.37;;;;;;;;;;4950071;28;20216;-60
2022/05/01 05:39:42;;;;;;;4.30;3.90;;;;;;;;;;4950936;29;20269;-62
2022/05/01 05:42:09;;;;;;;3.53;3.33;;;;;;;;;;4950449;28;20211;-61
2022/05/01 05:44:36;;;;;;;3.77;3.57;;;;;;;;;;4950293;29;20237;-61
2022/05/01 05:47:03;;;;;;;3.70;3.47;;;;;;;;;;4950830;28;20210;-61
2022/05/01 05:49:31;;;;;;;3.60;3.40;;;;;;;;;;4950770;29;20274;-60
2022/05/01 05:51:58;;;;;;;4.10;3.70;;;;;;;;;;4950856;28;20245;-60
2022/05/01 05:54:27;;;;;;;5.17;3.47;;;;;;;;;;4949429;29;20234;-60
2022/05/01 05:56:54;;;;;;;3.97;3.67;;;;;;;;;;4949457;29;20289;-61
2022/05/01 05:59:21;;;;;;;3.50;3.30;;;;;;;;;;4950669;29;20333;-61
2022/05/01 06:01:48;;;;;;;3.57;3.30;;;;;;;;;;4950586;29;20215;-60
2022/05/01 06:04:15;;;;;;;4.93;3.70;;;;;;;;;;4950431;29;20878;-62
2022/05/01 06:06:42;;;;;;;3.63;3.20;;;;;;;;;;4950350;28;20242;-60
2022/05/01 06:09:09;;;;;;;4.27;3.17;;;;;;;;;;4950286;29;20238;-60
2022/05/01 06:11:38;;;;;;;3.33;3.13;;;;;;;;;;4950048;28;20214;-60
2022/05/01 06:14:05;;;;;;;4.23;3.43;;;;;;;;;;4950072;29;20202;-60
2022/05/01 06:16:32;;;;;;;3.80;3.60;;;;;;;;;;4950821;29;20683;-60
2022/05/01 06:18:59;;;;;;;2.77;2.63;;;;;;;;;;4950054;29;20270;-60
2022/05/01 06:21:27;;;;;;;3.63;3.33;;;;;;;;;;4950299;28;20704;-60
2022/05/01 06:23:54;;;;;;;4.27;3.03;;;;;;;;;;4949671;29;20231;-60
2022/05/01 06:26:21;;;;;;;3.47;3.27;;;;;;;;;;4950121;29;20567;-60
2022/05/01 06:28:52;;;;;;;3.50;2.87;;;;;;;;;;4950077;29;20223;-60
2022/05/01 06:31:19;;;;;;;3.10;3.00;;;;;;;;;;4950040;29;20294;-60
2022/05/01 06:33:47;;;;;;;3.20;3.00;;;;;;;;;;4950193;29;20340;-61
2022/05/01 06:36:16;;;;;;;3.40;3.13;;;;;;;;;;4950352;28;20221;-60
2022/05/01 06:38:43;;;;;;;3.57;3.27;;;;;;;;;;4949998;28;20286;-60
2022/05/01 06:41:10;;;;;;;3.27;3.00;;;;;;;;;;4937812;29;20662;-60
2022/05/01 06:43:37;;;;;;;4.10;3.20;;;;;;;;;;4949118;29;20226;-60
2022/05/01 06:46:06;;;;;;;3.43;3.13;;;;;;;;;;4949936;29;20297;-61
2022/05/01 06:48:33;;;;;;;3.87;3.43;;;;;;;;;;4951808;28;20219;-61
2022/05/01 06:51:00;;;;;;;4.47;3.47;;;;;;;;;;4954097;29;20270;-61
2022/05/01 06:53:27;;;;;;;3.53;3.23;;;;;;;;;;4953697;29;20203;-60
2022/05/01 06:55:56;;;;;;;3.70;3.03;;;;;;;;;;4953215;29;20874;-60
2022/05/01 06:58:23;;;;;;;3.80;2.80;;;;;;;;;;4951208;29;20211;-60
2022/05/01 07:00:52;;;;;;;4.73;2.93;;;;;;;;;;4953820;29;20223;-60
2022/05/01 07:03:20;;;;;;;2.70;2.53;;;;;;;;;;4948004;29;20698;-60
2022/05/01 07:05:47;;;;;;;4.20;3.10;;;;;;;;;;4947019;28;20233;-61
2022/05/01 07:08:14;;;;;;;3.83;3.10;;;;;;;;;;4953134;29;20254;-59
2022/05/01 07:10:41;;;;;;;2.30;2.20;;;;;;;;;;4953291;29;20226;-58
2022/05/01 07:13:09;;;;;;;3.43;3.20;;;;;;;;;;4953468;29;20294;-60
2022/05/01 07:15:37;;;;;;;1.83;1.73;;;;;;;;;;4953340;29;20322;-59
2022/05/01 07:18:04;;;;;;;3.37;3.07;;;;;;;;;;4953349;28;20287;-59
2022/05/01 07:20:52;;;;;;;3.00;2.90;;;;;;;;;;4953553;29;20219;-60
2022/05/01 07:23:22;;;;;;;2.43;2.23;;;;;;;;;;4947405;29;20278;-61
2022/05/01 07:25:49;;;;;;;7.00;2.00;;;;;;;;;;4953210;29;20222;-61
2022/05/01 07:28:16;;;;;;;3.27;2.70;;;;;;;;;;4952981;29;20218;-61
2022/05/01 07:30:43;;;;;;;2.93;2.60;;;;;;;;;;4953232;29;20208;-60
2022/05/01 07:33:10;;;;;;;2.53;2.43;;;;;;;;;;4952590;29;20215;-61
2022/05/01 07:35:38;;;;;;;3.80;2.90;;;;;;;;;;4952433;29;20211;-61
2022/05/01 07:41:36;;;;;;;4.13;3.07;;;;;;;;;;4944046;29;20225;-61
2022/05/01 07:44:04;;;;;;;3.80;2.50;;;;;;;;;;4950026;29;20239;-61
2022/05/01 07:46:31;;;;;;;2.90;2.70;;;;;;;;;;4953167;29;20215;-60
2022/05/01 07:48:58;;;;;;;4.07;3.20;;;;;;;;;;4952923;29;20579;-61
2022/05/01 07:51:25;;;;;;;3.03;2.73;;;;;;;;;;4952996;28;20211;-60
2022/05/01 07:53:53;;;;;;;3.17;2.90;;;;;;;;;;4952919;29;20200;-61
2022/05/01 07:56:20;;;;;;;4.27;2.37;;;;;;;;;;4952535;29;20237;-60
2022/05/01 07:58:48;;;;;;;4.63;3.80;;;;;;;;;;4950782;28;20589;-61
2022/05/01 08:01:22;;;;;;;6.47;3.20;;;;;;;;;;4952369;29;20234;-65
2022/05/01 08:06:35;;;;;;;3.93;3.43;;;;;;;;;;4949070;29;20222;-58
2022/05/01 08:09:02;;;;;;;3.23;3.03;;;;;;;;;;4952376;29;20243;-59
2022/05/01 08:11:29;;;;;;;3.20;3.00;;;;;;;;;;4952740;29;20215;-58
2022/05/01 08:13:56;;;;;;;4.47;4.13;;;;;;;;;;4951548;29;20211;-58
2022/05/01 08:16:24;;;;;;;4.40;2.93;;;;;;;;;;4952487;29;20237;-58
2022/05/01 08:21:42;;;;;;;3.55;3.25;;;;;;;;;;4898016;29;20296;-61
2022/05/01 08:24:11;;;;;;;4.17;3.77;;;;;;;;;;4952060;29;20241;-61
2022/05/01 08:26:39;;;;;;;5.95;4.70;;;;;;;;;;4952034;28;20211;-61
2022/05/01 08:29:06;;;;;;;5.38;3.47;;;;;;;;;;4951916;28;20310;-63
2022/05/01 08:31:34;;;;;;;4.60;3.50;;;;;;;;;;4952654;29;20215;-63
2022/05/01 08:34:01;;;;;;;3.50;3.30;;;;;;;;;;4951878;29;20207;-63
2022/05/01 08:36:29;;;;;;;4.80;3.50;;;;;;;;;;4951597;29;20254;-64
2022/05/01 08:38:56;;;;;;;3.53;2.80;;;;;;;;;;4951901;29;20211;-62
2022/05/01 08:41:23;;;;;;;4.32;3.60;;;;;;;;;;4951808;29;20595;-63
2022/05/01 08:43:51;;;;;;;3.53;3.22;;;;;;;;;;4951609;28;20230;-61
2022/05/01 08:46:25;;;;;;;2.83;2.63;;;;;;;;;;4951825;29;20590;-60
2022/05/01 08:49:00;;;;;;;3.75;3.55;;;;;;;;;;4947583;29;20217;-62
2022/05/01 08:51:27;;;;;;;4.03;3.72;;;;;;;;;;4951797;29;20214;-59
2022/05/01 08:53:57;;;;;;;3.95;3.65;;;;;;;;;;4951786;28;20631;-57
2022/05/01 08:56:25;;;;;;;3.80;3.50;;;;;;;;;;4950744;29;20230;-61
2022/05/01 08:58:53;;;;;;;3.78;3.58;;;;;;;;;;4951400;29;20217;-59
2022/05/01 09:01:20;;;;;;;3.97;3.60;;;;;;;;;;4950938;29;20255;-58
2022/05/01 09:03:47;;;;;;;4.32;4.10;;;;;;;;;;4947282;29;20215;-63
2022/05/01 09:06:16;;;;;;;7.03;4.60;;;;;;;;;;4949119;28;20230;-59
2022/05/01 09:08:44;;;;;;;4.55;3.72;;;;;;;;;;4957141;28;20238;-60
2022/05/01 09:13:56;;;;;;;5.07;4.32;;;;;;;;;;4968965;28;20241;-60
2022/05/01 09:16:23;;;;;;;4.32;3.92;;;;;;;;;;4962744;28;20229;-61
2022/05/01 09:18:50;;;;;;;6.03;3.90;;;;;;;;;;4965313;28;20693;-61
2022/05/01 09:21:18;;;;;;;5.47;4.50;;;;;;;;;;4932152;29;20212;-60
2022/05/01 09:23:47;;;;;;;3.58;3.28;;;;;;;;;;4946938;28;20209;-59
2022/05/01 09:26:15;;;;;;;3.85;3.60;;;;;;;;;;4949465;29;20257;-61
2022/05/01 09:28:49;;;;;;;4.88;4.00;;;;;;;;;;4949827;28;20691;-61
2022/05/01 09:31:16;;;;;;;3.35;3.15;;;;;;;;;;4963858;28;20301;-60
2022/05/01 09:33:43;;;;;;;4.43;4.03;;;;;;;;;;4953164;28;20209;-60
2022/05/01 09:36:11;;;;;;;5.55;4.45;;;;;;;;;;4950789;28;20214;-61
2022/05/01 09:38:40;;;;;;;4.50;4.07;;;;;;;;;;4950518;29;20219;-60
2022/05/01 09:41:14;;;;;;;4.85;3.88;;;;;;;;;;4964376;28;20306;-61
2022/05/01 09:43:42;;;;;;;3.88;3.67;;;;;;;;;;4963764;28;20215;-60
2022/05/01 09:46:13;;;;;;;5.57;3.75;;;;;;;;;;4950538;29;20301;-60
2022/05/01 09:48:40;;;;;;;4.78;4.43;;;;;;;;;;4958655;28;20211;-63
2022/05/01 09:51:15;;;;;;;7.05;4.35;;;;;;;;;;4956528;28;20208;-63
2022/05/01 09:53:43;;;;;;;4.40;4.10;;;;;;;;;;4969803;28;20241;-63
2022/05/01 09:56:10;;;;;;;5.25;4.72;;;;;;;;;;4952035;28;20203;-63
2022/05/01 09:58:40;;;;;;;6.30;4.70;;;;;;;;;;4957396;28;20221;-64
2022/05/01 10:01:11;;;;;;;6.80;5.00;;;;;;;;;;4969544;28;20213;-63
2022/05/01 10:03:40;;;;;;;8.38;4.97;;;;;;;;;;4949067;28;20446;-64
2022/05/01 10:06:09;;;;;;;6.07;4.72;;;;;;;;;;4957250;28;20233;-63
2022/05/01 10:08:37;;;;;;;5.43;5.03;;;;;;;;;;4965639;28;20247;-63
2022/05/01 10:11:06;;;;;;;5.25;4.70;;;;;;;;;;4949936;28;20211;-63
2022/05/01 10:13:34;;;;;;;6.43;5.15;;;;;;;;;;4962989;28;20210;-64
2022/05/01 10:16:03;;;;;;;4.07;3.72;;;;;;;;;;4959244;28;20202;-63
2022/05/01 10:18:31;;;;;;;6.05;4.38;;;;;;;;;;4950236;28;20222;-63
2022/05/01 10:20:58;;;;;;;4.88;4.53;;;;;;;;;;4949971;29;20340;-63
2022/05/01 10:23:25;;;;;;;4.18;3.80;;;;;;;;;;4959639;28;20238;-64
2022/05/01 10:25:54;;;;;;;5.03;4.40;;;;;;;;;;4968354;28;20241;-63
2022/05/01 10:28:32;;;;;;;4.75;4.43;;;;;;;;;;4948947;29;20211;-63
2022/05/01 10:33:55;;;;;;;4.63;4.22;;;;;;;;;;4929088;28;20290;-65
2022/05/01 10:36:38;;;;;;;5.60;5.05;;;;;;;;;;4949961;29;20219;-64
2022/05/01 10:39:10;;;;;;;4.07;3.70;;;;;;;;;;4967713;28;20214;-63
2022/05/01 10:41:41;;;;;;;4.65;4.28;;;;;;;;;;4955579;28;20230;-64
2022/05/01 10:44:09;;;;;;;5.00;4.50;;;;;;;;;;4963631;28;20218;-64
2022/05/01 10:46:36;;;;;;;8.43;4.15;;;;;;;;;;4968030;28;20206;-63
2022/05/01 10:49:07;;;;;;;4.45;4.05;;;;;;;;;;4959861;28;20210;-64
2022/05/01 10:51:49;;;;;;;4.28;3.92;;;;;;;;;;4949856;28;20638;-63
2022/05/01 10:54:35;;;;;;;4.88;4.47;;;;;;;;;;4950285;29;20240;-63
2022/05/01 10:57:10;;;;;;;4.65;4.30;;;;;;;;;;4963770;28;20211;-63
2022/05/01 10:59:39;;;;;;;4.93;4.43;;;;;;;;;;4954613;28;20220;-63
2022/05/01 11:02:07;;;;;;;4.68;4.18;;;;;;;;;;4966204;28;20745;-63
2022/05/01 11:04:41;;;;;;;5.53;5.03;;;;;;;;;;4949433;28;20679;-65
2022/05/01 11:07:10;;;;;;;5.57;5.10;;;;;;;;;;4962475;28;20786;-64
2022/05/01 11:09:38;;;;;;;5.78;5.18;;;;;;;;;;4950308;28;20234;-64
2022/05/01 11:12:07;;;;;;;4.40;4.03;;;;;;;;;;4949893;28;20252;-64
2022/05/01 11:14:35;;;;;;;5.13;4.53;;;;;;;;;;4946015;28;20758;-63
2022/05/01 11:17:03;;;;;;;5.45;4.53;;;;;;;;;;4949047;29;20230;-67
2022/05/01 11:19:32;;;;;;;5.07;4.05;;;;;;;;;;4949844;29;20215;-64
2022/05/01 11:21:59;;;;;;;5.00;4.60;;;;;;;;;;4936220;29;20212;-62
2022/05/01 11:24:42;;;;;;;8.65;5.05;;;;;;;;;;4947458;29;20211;-61
2022/05/01 11:27:16;;;;;;;4.75;4.43;;;;;;;;;;4948882;28;20729;-64
2022/05/01 11:29:58;;;;;;;4.32;4.03;;;;;;;;;;4949361;29;20704;-64
2022/05/01 11:32:26;;;;;;;4.97;4.30;;;;;;;;;;4935898;29;20862;-63
2022/05/01 11:34:54;;;;;;;5.07;4.60;;;;;;;;;;4950181;28;20211;-65
2022/05/01 11:37:22;;;;;;;4.05;3.83;;;;;;;;;;4948523;29;20203;-66
2022/05/01 11:40:16;;;;;;;4.65;4.45;;;;;;;;;;4949520;29;20206;-63
2022/05/01 11:42:44;;;;;;;5.07;4.57;;;;;;;;;;4934936;29;20199;-62
2022/05/01 11:45:11;;;;;;;5.78;5.28;;;;;;;;;;4935074;29;20239;-65
2022/05/01 11:47:41;;;;;;;6.22;5.15;;;;;;;;;;4946767;29;20298;-65
2022/05/01 11:50:18;;;;;;;6.20;4.95;;;;;;;;;;4951388;29;20242;-64
2022/05/01 11:52:49;;;;;;;4.88;4.47;;;;;;;;;;4952461;29;20214;-64
2022/05/01 11:55:19;;;;;;;4.45;4.13;;;;;;;;;;4944560;29;20203;-62
2022/05/01 12:03:30;;;;;;;7.53;5.22;;;;;;;;;;4952521;29;20206;-62
2022/05/01 12:05:57;;;;;;;5.97;5.43;;;;;;;;;;4951149;28;20659;-62
2022/05/01 12:08:24;;;;;;;5.32;4.90;;;;;;;;;;4951525;28;20895;-62
2022/05/01 12:10:52;;;;;;;6.22;5.63;;;;;;;;;;4952200;29;20211;-63
2022/05/01 12:13:23;;;;;;;9.23;4.88;;;;;;;;;;4950257;29;20295;-62
2022/05/01 12:15:51;;;;;;;6.40;5.80;;;;;;;;;;4945728;29;20217;-63
2022/05/01 12:18:18;;;;;;;7.50;5.38;;;;;;;;;;4949630;29;20199;-63
2022/05/01 12:20:47;;;;;;;5.40;5.00;;;;;;;;;;4951221;29;20215;-62
2022/05/01 12:23:18;;;;;;;6.75;6.05;;;;;;;;;;4951725;29;20301;-62
2022/05/01 12:25:51;;;;;;;6.13;5.63;;;;;;;;;;4951289;29;20231;-62
2022/05/01 12:28:20;;;;;;;5.25;4.85;;;;;;;;;;4940687;29;20215;-63
2022/05/01 12:30:50;;;;;;;6.25;5.10;;;;;;;;;;4951835;29;20395;-63
2022/05/01 12:33:22;;;;;;;7.10;6.38;;;;;;;;;;4952075;29;20215;-63
2022/05/01 12:35:58;;;;;;;5.47;5.07;;;;;;;;;;4951244;29;20199;-63
2022/05/01 12:38:27;;;;;;;6.00;5.32;;;;;;;;;;4951949;29;20862;-63
2022/05/01 12:43:55;;;;;;;6.93;5.63;;;;;;;;;;4952088;29;20558;-62
2022/05/01 12:46:26;;;;;;;7.40;5.60;;;;;;;;;;4942196;29;20661;-63
2022/05/01 12:48:53;;;;;;;8.90;6.55;;;;;;;;;;4948993;29;20666;-63
2022/05/01 12:51:21;;;;;;;6.80;6.00;;;;;;;;;;4951067;29;20215;-62
2022/05/01 12:53:48;;;;;;;6.88;6.18;;;;;;;;;;4951560;29;20207;-64
2022/05/01 12:56:21;;;;;;;6.93;6.22;;;;;;;;;;4951772;28;20207;-64
2022/05/01 12:58:49;;;;;;;5.95;5.45;;;;;;;;;;4951362;29;20301;-63
2022/05/01 13:01:23;;;;;;;5.97;5.47;;;;;;;;;;4951903;28;20282;-63
2022/05/01 13:03:50;;;;;;;5.85;5.35;;;;;;;;;;4949347;29;20216;-63
2022/05/01 13:06:17;;;;;;;6.97;5.85;;;;;;;;;;4951152;28;20242;-63
2022/05/01 13:08:47;;;;;;;5.68;5.18;;;;;;;;;;4950374;29;20239;-62
2022/05/01 13:11:15;;;;;;;6.13;5.53;;;;;;;;;;4950782;28;20222;-63
2022/05/01 13:13:46;;;;;;;7.63;6.20;;;;;;;;;;4948486;29;20207;-63
2022/05/01 13:16:13;;;;;;;7.28;6.57;;;;;;;;;;4951262;28;20214;-63
2022/05/01 13:18:40;;;;;;;5.88;5.35;;;;;;;;;;4950424;28;20318;-63
2022/05/01 13:21:07;;;;;;;5.75;5.15;;;;;;;;;;4950415;29;20218;-62
2022/05/01 13:23:35;;;;;;;11.25;7.03;;;;;;;;;;4950350;29;20227;-62
2022/05/01 13:26:03;;;;;;;6.88;6.05;;;;;;;;;;4950726;29;20222;-62
2022/05/01 13:28:30;;;;;;;6.22;5.50;;;;;;;;;;4950613;28;20211;-63
2022/05/01 13:30:57;;;;;;;6.55;5.53;;;;;;;;;;4950158;29;20266;-62
2022/05/01 13:33:25;;;;;;;5.18;4.75;;;;;;;;;;4950404;29;20210;-62
2022/05/01 13:35:52;;;;;;;7.05;5.88;;;;;;;;;;4950160;29;20230;-62
2022/05/01 13:38:19;;;;;;;9.32;7.28;;;;;;;;;;4950750;29;20215;-63
2022/05/01 13:46:17;;;;;;;7.53;6.20;;;;;;;;;;4933841;29;20234;-62
2022/05/01 13:48:44;;;;;;;5.25;4.75;;;;;;;;;;4950244;29;20215;-62
2022/05/01 13:51:11;;;;;;;5.30;4.70;;;;;;;;;;4950123;29;20966;-62
2022/05/01 13:53:38;;;;;;;4.43;4.10;;;;;;;;;;4950377;29;20223;-61
2022/05/01 13:56:05;;;;;;;5.40;5.00;;;;;;;;;;4949446;29;20211;-68
2022/05/01 13:58:34;;;;;;;7.25;5.13;;;;;;;;;;4947582;28;20238;-61
2022/05/01 14:01:01;;;;;;;5.38;4.90;;;;;;;;;;4947564;29;20214;-62
2022/05/01 14:03:28;;;;;;;5.43;5.00;;;;;;;;;;4949420;29;20214;-65
2022/05/01 14:05:55;;;;;;;5.25;4.75;;;;;;;;;;4949764;28;20265;-61
2022/05/01 14:08:22;;;;;;;4.93;4.28;;;;;;;;;;4949624;28;20257;-61
2022/05/01 14:10:49;;;;;;;4.70;4.30;;;;;;;;;;4950101;29;20215;-61
2022/05/01 14:13:16;;;;;;;5.57;5.07;;;;;;;;;;4950005;29;20207;-61
2022/05/01 14:15:45;;;;;;;10.90;5.05;;;;;;;;;;4949525;29;20207;-62
2022/05/01 14:18:12;;;;;;;4.60;4.28;;;;;;;;;;4949520;28;20218;-66
2022/05/01 14:20:39;;;;;;;5.00;4.60;;;;;;;;;;4949368;29;20207;-63
2022/05/01 14:23:07;;;;;;;4.43;4.13;;;;;;;;;;4950028;29;20215;-62
2022/05/01 14:25:34;;;;;;;5.43;4.95;;;;;;;;;;4949879;29;20227;-63
2022/05/01 14:28:01;;;;;;;5.63;5.10;;;;;;;;;;4950123;28;20211;-61
2022/05/01 14:30:31;;;;;;;6.03;5.25;;;;;;;;;;4949465;29;20219;-61
2022/05/01 14:33:01;;;;;;;4.78;4.40;;;;;;;;;;4950078;29;20682;-60
2022/05/01 14:35:32;;;;;;;5.55;4.50;;;;;;;;;;4947166;29;20206;-64
2022/05/01 14:38:03;;;;;;;4.68;4.28;;;;;;;;;;4950231;29;20250;-62
2022/05/01 14:40:30;;;;;;;5.22;4.80;;;;;;;;;;4949839;29;20226;-63
2022/05/01 14:42:59;;;;;;;5.88;5.20;;;;;;;;;;4949453;28;20200;-65
2022/05/01 14:45:27;;;;;;;5.25;4.57;;;;;;;;;;4949849;28;20211;-67
2022/05/01 14:47:56;;;;;;;5.03;4.72;;;;;;;;;;4949940;29;20234;-61
2022/05/01 14:50:26;;;;;;;4.68;4.38;;;;;;;;;;4949984;29;20294;-62
2022/05/01 14:52:54;;;;;;;6.80;4.45;;;;;;;;;;4949526;29;20670;-62
2022/05/01 14:55:22;;;;;;;5.13;4.63;;;;;;;;;;4949897;28;20211;-61
2022/05/01 14:57:52;;;;;;;4.95;4.55;;;;;;;;;;4949549;29;20215;-62
2022/05/01 15:08:39;;;;;;;5.05;4.68;;;;;;;;;;4949680;28;20238;-63
2022/05/01 15:11:06;;;;;;;5.63;5.03;;;;;;;;;;4952826;29;20209;-65
2022/05/01 15:13:33;;;;;;;4.78;4.38;;;;;;;;;;4953330;29;20207;-63
2022/05/01 15:16:02;;;;;;;4.93;4.30;;;;;;;;;;4953083;29;20204;-63
2022/05/01 15:18:35;;;;;;;5.03;4.53;;;;;;;;;;4951883;29;20730;-61
2022/05/01 15:21:07;;;;;;;4.57;4.18;;;;;;;;;;4953055;29;20203;-61
2022/05/01 15:23:40;;;;;;;5.25;4.82;;;;;;;;;;4953527;29;20222;-61
2022/05/01 15:26:07;;;;;;;5.68;4.60;;;;;;;;;;4952696;29;20641;-61
2022/05/01 15:28:36;;;;;;;4.30;4.00;;;;;;;;;;4953459;29;20215;-61
2022/05/01 15:31:05;;;;;;;4.03;3.72;;;;;;;;;;4952895;29;20204;-61
2022/05/01 15:33:44;;;;;;;6.53;4.53;;;;;;;;;;4953627;29;20589;-60
2022/05/01 15:36:17;;;;;;;4.15;3.85;;;;;;;;;;4953145;29;20218;-60
2022/05/01 15:38:46;;;;;;;4.55;4.18;;;;;;;;;;4953456;29;20217;-59
2022/05/01 15:41:17;;;;;;;5.20;3.83;;;;;;;;;;4952688;29;20672;-60
2022/05/01 15:43:44;;;;;;;4.05;3.58;;;;;;;;;;4953167;29;20449;-61